createdAt,value
2018-02-22T00:00:53.181Z,-1.30
2018-02-22T00:03:20.649Z,-1.30
2018-02-22T00:05:48.106Z,-1.20
2018-02-22T00:08:15.572Z,-1.10
2018-02-22T00:10:43.034Z,-1.00
2018-02-22T00:13:10.493Z,-1.00
2018-02-22T00:15:37.964Z,-0.90
2018-02-22T00:18:06.189Z,-0.90
2018-02-22T00:20:33.660Z,-0.90
2018-02-22T00:23:01.124Z,-0.90
2018-02-22T00:25:28.595Z,-0.90
2018-02-22T00:27:56.054Z,-0.80
2018-02-22T00:30:23.518Z,-0.80
2018-02-22T00:32:50.998Z,-0.80
2018-02-22T00:35:19.238Z,-0.80
2018-02-22T00:37:46.698Z,-0.80
2018-02-22T00:40:14.171Z,-0.90
2018-02-22T00:42:41.633Z,-0.80
2018-02-22T00:45:09.102Z,-0.70
2018-02-22T00:47:36.553Z,-0.70
2018-02-22T00:50:04.803Z,-0.70
2018-02-22T00:52:32.257Z,-0.70
2018-02-22T00:54:59.746Z,-0.70
2018-02-22T00:57:27.974Z,-0.70
2018-02-22T00:59:55.450Z,-0.80
2018-02-22T01:02:22.910Z,-0.80
2018-02-22T01:04:51.151Z,-0.70
2018-02-22T01:07:18.609Z,-0.70
2018-02-22T01:09:46.093Z,-0.60
2018-02-22T01:12:13.556Z,-0.70
2018-02-22T01:14:41.024Z,-0.80
2018-02-22T01:17:08.491Z,-0.80
2018-02-22T01:19:35.961Z,-0.80
2018-02-22T01:22:04.202Z,-0.90
2018-02-22T01:24:31.660Z,-0.90
2018-02-22T01:26:59.136Z,-0.90
2018-02-22T01:29:26.605Z,-0.90
2018-02-22T01:31:54.069Z,-0.80
2018-02-22T01:34:22.297Z,-0.80
2018-02-22T01:36:49.777Z,-0.80
2018-02-22T01:39:17.230Z,-0.70
2018-02-22T01:41:44.703Z,-0.60
2018-02-22T01:44:12.163Z,-0.50
2018-02-22T01:46:39.637Z,-0.40
2018-02-22T01:49:07.108Z,-0.40
2018-02-22T01:51:35.345Z,-0.40
2018-02-22T01:54:02.814Z,-0.40
2018-02-22T01:56:30.284Z,-0.40
2018-02-22T01:58:57.753Z,-0.40
2018-02-22T02:01:25.989Z,-0.60
2018-02-22T02:03:53.445Z,-0.60
2018-02-22T02:06:20.932Z,-0.50
2018-02-22T02:08:49.157Z,-0.40
2018-02-22T02:11:16.619Z,-0.40
2018-02-22T02:13:44.089Z,-0.30
2018-02-22T02:16:11.553Z,-0.30
2018-02-22T02:18:39.026Z,-0.30
2018-02-22T02:21:06.486Z,-0.30
2018-02-22T02:23:33.952Z,-0.50
2018-02-22T02:26:02.186Z,-0.30
2018-02-22T02:28:29.665Z,-0.40
2018-02-22T02:30:57.129Z,-0.30
2018-02-22T02:33:24.598Z,-0.30
2018-02-22T02:35:52.063Z,-0.30
2018-02-22T02:38:20.310Z,-0.20
2018-02-22T02:40:47.772Z,-0.20
2018-02-22T02:43:15.247Z,-0.20
2018-02-22T02:45:42.713Z,-0.10
2018-02-22T02:48:10.198Z,-0.20
2018-02-22T02:50:37.655Z,-0.20
2018-02-22T02:53:05.139Z,-0.10
2018-02-22T02:55:32.606Z,-0.20
2018-02-22T02:58:00.082Z,-0.10
2018-02-22T03:00:27.552Z,-0.10
2018-02-22T03:02:55.019Z,-0.10
2018-02-22T03:05:22.491Z,-0.10
2018-02-22T03:07:50.723Z,-0.20
2018-02-22T03:10:18.190Z,-0.20
2018-02-22T03:12:45.650Z,-0.10
2018-02-22T03:15:13.132Z,-0.10
2018-02-22T03:17:40.587Z,0.00
2018-02-22T03:20:08.818Z,0.00
2018-02-22T03:22:36.273Z,0.00
2018-02-22T03:25:03.743Z,0.00
2018-02-22T03:27:31.200Z,0.00
2018-02-22T03:29:58.666Z,0.00
2018-02-22T03:32:26.121Z,0.00
2018-02-22T03:34:53.590Z,0.10
2018-02-22T03:37:21.051Z,0.10
2018-02-22T03:39:48.520Z,0.10
2018-02-22T03:42:15.982Z,0.10
2018-02-22T03:44:43.458Z,0.00
2018-02-22T03:47:10.921Z,0.00
2018-02-22T03:49:38.394Z,-0.10
2018-02-22T03:52:05.868Z,-0.10
2018-02-22T03:54:33.339Z,0.00
2018-02-22T03:57:00.800Z,0.00
2018-02-22T03:59:28.277Z,0.00
2018-02-22T04:01:55.745Z,0.10
2018-02-22T04:04:23.201Z,0.10
2018-02-22T04:06:50.661Z,0.20
2018-02-22T04:09:18.883Z,0.20
2018-02-22T04:11:46.352Z,0.20
2018-02-22T04:14:13.818Z,0.20
2018-02-22T04:16:41.288Z,0.20
2018-02-22T04:19:08.739Z,0.20
2018-02-22T04:21:36.213Z,0.20
2018-02-22T04:24:03.687Z,0.20
2018-02-22T04:26:31.148Z,0.30
2018-02-22T04:28:58.614Z,0.20
2018-02-22T04:31:26.853Z,0.20
2018-02-22T04:33:54.329Z,0.30
2018-02-22T04:36:21.797Z,0.30
2018-02-22T04:38:50.043Z,0.30
2018-02-22T04:41:17.521Z,0.30
2018-02-22T04:43:45.764Z,0.30
2018-02-22T04:46:13.223Z,0.30
2018-02-22T04:48:40.687Z,0.40
2018-02-22T04:51:08.143Z,0.40
2018-02-22T04:53:35.598Z,0.40
2018-02-22T04:56:03.082Z,0.40
2018-02-22T04:58:30.546Z,0.40
2018-02-22T05:00:58.010Z,0.40
2018-02-22T05:03:26.233Z,0.40
2018-02-22T05:05:53.693Z,0.40
2018-02-22T05:08:21.154Z,0.40
2018-02-22T05:10:48.621Z,0.40
2018-02-22T05:13:16.080Z,0.40
2018-02-22T05:15:44.452Z,0.40
2018-02-22T05:18:11.918Z,0.40
2018-02-22T05:20:39.383Z,0.40
2018-02-22T05:23:06.854Z,0.50
2018-02-22T05:25:34.320Z,0.40
2018-02-22T05:28:01.777Z,0.40
2018-02-22T05:30:29.248Z,0.30
2018-02-22T05:32:57.478Z,0.40
2018-02-22T05:35:24.950Z,0.30
2018-02-22T05:37:52.415Z,0.40
2018-02-22T05:40:19.883Z,0.40
2018-02-22T05:42:47.359Z,0.40
2018-02-22T05:45:15.574Z,0.40
2018-02-22T05:47:43.049Z,0.40
2018-02-22T05:50:10.519Z,0.40
2018-02-22T05:52:37.994Z,0.50
2018-02-22T05:55:05.447Z,0.50
2018-02-22T05:57:32.921Z,0.40
2018-02-22T06:00:01.139Z,0.40
2018-02-22T06:02:28.614Z,0.40
2018-02-22T06:04:56.076Z,0.40
2018-02-22T06:07:23.547Z,0.40
2018-02-22T06:09:51.020Z,0.40
2018-02-22T06:12:18.488Z,0.40
2018-02-22T06:14:46.720Z,0.40
2018-02-22T06:17:14.185Z,0.40
2018-02-22T06:19:41.661Z,0.40
2018-02-22T06:22:09.150Z,0.50
2018-02-22T06:24:36.618Z,0.50
2018-02-22T06:27:04.076Z,0.50
2018-02-22T06:29:31.553Z,0.60
2018-02-22T06:31:59.009Z,0.60
2018-02-22T06:34:26.484Z,0.50
2018-02-22T06:36:53.943Z,0.50
2018-02-22T06:39:21.411Z,0.50
2018-02-22T06:41:48.867Z,0.50
2018-02-22T06:44:16.345Z,0.40
2018-02-22T06:46:43.793Z,0.40
2018-02-22T06:49:11.276Z,0.50
2018-02-22T06:51:38.735Z,0.60
2018-02-22T06:54:06.973Z,0.50
2018-02-22T06:56:35.201Z,0.50
2018-02-22T06:59:02.676Z,0.50
2018-02-22T07:01:30.144Z,0.50
2018-02-22T07:03:57.611Z,0.50
2018-02-22T07:06:25.078Z,0.60
2018-02-22T07:08:52.542Z,0.60
2018-02-22T07:11:20.003Z,0.70
2018-02-22T07:13:47.477Z,0.80
2018-02-22T07:16:14.926Z,0.80
2018-02-22T07:18:42.396Z,0.70
2018-02-22T07:21:09.867Z,0.70
2018-02-22T07:23:37.326Z,0.60
2018-02-22T07:26:04.791Z,0.60
2018-02-22T07:28:32.251Z,0.60
2018-02-22T07:30:59.729Z,0.60
2018-02-22T07:33:27.202Z,0.60
2018-02-22T07:35:54.674Z,0.60
2018-02-22T07:38:22.150Z,0.70
2018-02-22T07:40:49.619Z,0.70
2018-02-22T07:43:17.851Z,0.80
2018-02-22T07:45:45.320Z,0.80
2018-02-22T07:48:12.782Z,0.90
2018-02-22T07:50:40.256Z,1.00
2018-02-22T07:53:07.717Z,1.00
2018-02-22T07:55:35.184Z,1.10
2018-02-22T07:58:03.413Z,1.20
2018-02-22T08:00:30.892Z,1.10
2018-02-22T08:02:59.126Z,1.20
2018-02-22T08:05:26.605Z,1.20
2018-02-22T08:07:54.106Z,1.20
2018-02-22T08:10:22.392Z,1.30
2018-02-22T08:12:50.626Z,1.30
2018-02-22T08:15:18.092Z,1.30
2018-02-22T08:17:45.550Z,1.30
2018-02-22T08:20:13.021Z,1.30
2018-02-22T08:22:40.492Z,1.30
2018-02-22T08:25:07.962Z,1.30
2018-02-22T08:27:36.186Z,1.40
2018-02-22T08:30:03.653Z,1.40
2018-02-22T08:32:31.121Z,1.40
2018-02-22T08:34:58.590Z,1.40
2018-02-22T08:37:26.082Z,1.50
2018-02-22T08:39:53.537Z,1.50
2018-02-22T08:42:21.007Z,1.50
2018-02-22T08:44:48.463Z,1.50
2018-02-22T08:47:15.933Z,1.60
2018-02-22T08:49:43.402Z,1.60
2018-02-22T08:52:10.861Z,1.70
2018-02-22T08:54:38.325Z,1.80
2018-02-22T08:57:05.803Z,1.80
2018-02-22T08:59:33.249Z,1.90
2018-02-22T09:02:00.724Z,1.90
2018-02-22T09:04:28.170Z,1.90
2018-02-22T09:06:55.644Z,2.00
2018-02-22T09:09:23.097Z,2.00
2018-02-22T09:11:50.561Z,2.10
2018-02-22T09:14:18.009Z,2.10
2018-02-22T09:16:45.470Z,2.20
2018-02-22T09:19:12.926Z,2.20
2018-02-22T09:21:40.400Z,2.20
2018-02-22T09:24:07.850Z,2.20
2018-02-22T09:26:35.313Z,2.30
2018-02-22T09:29:02.778Z,2.30
2018-02-22T09:31:30.237Z,2.30
2018-02-22T09:33:58.464Z,2.30
2018-02-22T09:36:25.932Z,2.30
2018-02-22T09:38:53.389Z,2.30
2018-02-22T09:41:20.858Z,2.40
2018-02-22T09:43:48.326Z,2.40
2018-02-22T09:46:15.783Z,2.50
2018-02-22T09:48:43.234Z,2.50
2018-02-22T09:51:10.688Z,2.40
2018-02-22T09:53:38.171Z,2.40
2018-02-22T09:56:05.626Z,2.50
2018-02-22T09:58:33.087Z,2.60
2018-02-22T10:01:00.544Z,2.60
2018-02-22T10:03:28.014Z,2.60
2018-02-22T10:05:56.233Z,2.70
2018-02-22T10:08:23.693Z,2.70
2018-02-22T10:10:51.147Z,2.80
2018-02-22T10:13:18.614Z,2.80
2018-02-22T10:15:46.073Z,2.80
2018-02-22T10:18:13.539Z,2.80
2018-02-22T10:20:41.015Z,2.80
2018-02-22T10:23:08.477Z,2.70
2018-02-22T10:25:35.942Z,2.80
2018-02-22T10:28:03.393Z,2.80
2018-02-22T10:30:30.858Z,2.80
2018-02-22T10:32:58.320Z,2.80
2018-02-22T10:35:26.559Z,2.90
2018-02-22T10:37:54.022Z,2.90
2018-02-22T10:40:21.502Z,3.00
2018-02-22T10:42:48.958Z,3.00
2018-02-22T10:45:16.416Z,3.00
2018-02-22T10:47:43.874Z,3.00
2018-02-22T10:50:11.337Z,3.10
2018-02-22T10:52:38.790Z,3.20
2018-02-22T10:55:06.273Z,3.20
2018-02-22T10:57:34.485Z,3.00
2018-02-22T11:00:01.946Z,3.00
2018-02-22T11:02:35.011Z,3.00
2018-02-22T11:05:02.463Z,3.10
2018-02-22T11:07:29.931Z,3.10
2018-02-22T11:09:58.157Z,3.10
2018-02-22T11:12:25.626Z,3.10
2018-02-22T11:14:53.082Z,3.10
2018-02-22T11:17:20.542Z,3.10
2018-02-22T11:19:48.128Z,3.10
2018-02-22T11:22:15.548Z,3.10
2018-02-22T11:24:43.003Z,3.10
2018-02-22T11:27:10.474Z,3.10
2018-02-22T11:29:37.926Z,3.10
2018-02-22T11:32:05.387Z,3.20
2018-02-22T11:34:32.837Z,3.30
2018-02-22T11:37:00.298Z,3.30
2018-02-22T11:39:27.760Z,3.30
2018-02-22T11:41:55.217Z,3.40
2018-02-22T11:44:22.674Z,3.50
2018-02-22T11:46:50.158Z,3.50
2018-02-22T11:49:18.383Z,3.50
2018-02-22T11:51:45.841Z,3.50
2018-02-22T11:54:13.302Z,3.40
2018-02-22T11:56:40.759Z,3.40
2018-02-22T11:59:08.230Z,3.50
2018-02-22T12:01:35.688Z,3.50
2018-02-22T12:04:03.153Z,3.50
2018-02-22T12:06:30.614Z,3.50
2018-02-22T12:08:58.081Z,3.60
2018-02-22T12:11:26.304Z,3.50
2018-02-22T12:13:53.761Z,3.50
2018-02-22T12:16:21.222Z,3.50
2018-02-22T12:18:48.692Z,3.50
2018-02-22T12:21:16.156Z,3.40
2018-02-22T12:23:43.626Z,3.40
2018-02-22T12:26:11.091Z,3.50
2018-02-22T12:28:38.551Z,3.60
2018-02-22T12:31:06.014Z,3.70
2018-02-22T12:33:34.254Z,3.70
2018-02-22T12:36:01.723Z,3.60
2018-02-22T12:38:30.965Z,3.70
2018-02-22T12:40:58.422Z,3.60
2018-02-22T12:43:26.650Z,3.60
2018-02-22T12:45:54.109Z,3.60
2018-02-22T12:48:21.578Z,3.60
2018-02-22T12:50:49.043Z,3.70
2018-02-22T12:53:16.497Z,3.70
2018-02-22T12:55:43.969Z,3.70
2018-02-22T12:58:12.023Z,3.80
2018-02-22T13:00:39.518Z,3.90
2018-02-22T13:03:07.756Z,3.90
2018-02-22T13:05:35.240Z,3.90
2018-02-22T13:08:02.665Z,3.90
2018-02-22T13:10:55.329Z,3.90
2018-02-22T13:13:22.786Z,3.90
2018-02-22T13:15:50.250Z,3.90
2018-02-22T13:18:42.488Z,3.80
2018-02-22T13:24:03.878Z,3.60
2018-02-22T13:26:31.338Z,3.60
2018-02-22T13:28:58.799Z,3.60
2018-02-22T13:31:26.255Z,3.70
2018-02-22T13:34:06.280Z,3.60
2018-02-22T13:36:33.733Z,3.60
2018-02-22T13:39:12.627Z,3.70
2018-02-22T13:41:40.102Z,3.70
2018-02-22T13:44:19.297Z,3.60
2018-02-22T13:46:46.759Z,3.60
2018-02-22T13:49:26.051Z,3.60
2018-02-22T13:51:53.526Z,3.40
2018-02-22T13:54:20.974Z,3.40
2018-02-22T13:57:00.435Z,3.40
2018-02-22T13:59:27.926Z,3.40
2018-02-22T14:02:07.171Z,3.40
2018-02-22T14:04:45.478Z,3.30
2018-02-22T14:07:12.941Z,3.30
2018-02-22T14:09:41.169Z,3.30
2018-02-22T14:12:08.645Z,3.30
2018-02-22T14:14:36.093Z,3.40
2018-02-22T14:17:03.567Z,3.50
2018-02-22T14:31:06.579Z,3.60
2018-02-22T14:33:54.480Z,3.60
2018-02-22T14:36:21.955Z,3.60
2018-02-22T14:38:50.186Z,3.60
2018-02-22T14:41:17.640Z,3.60
2018-02-22T14:43:45.103Z,3.50
2018-02-22T14:46:12.556Z,3.50
2018-02-22T14:48:40.024Z,3.40
2018-02-22T14:51:07.478Z,3.40
2018-02-22T14:53:34.948Z,3.30
2018-02-22T14:56:02.408Z,3.30
2018-02-22T15:01:24.157Z,3.30
2018-02-22T15:03:51.623Z,3.20
2018-02-22T15:06:19.077Z,3.20
2018-02-22T15:08:46.539Z,3.20
2018-02-22T15:11:13.996Z,3.10
2018-02-22T15:13:41.464Z,3.10
2018-02-22T15:16:08.924Z,3.10
2018-02-22T15:18:36.383Z,3.00
2018-02-22T15:21:03.838Z,3.00
2018-02-22T15:23:32.666Z,2.90
2018-02-22T15:26:00.192Z,2.90
2018-02-22T15:28:27.669Z,2.80
2018-02-22T15:30:55.890Z,2.80
2018-02-22T15:33:23.351Z,2.80
2018-02-22T15:35:50.807Z,2.80
2018-02-22T15:38:18.271Z,2.80
2018-02-22T15:40:45.731Z,2.80
2018-02-22T15:43:13.195Z,2.80
2018-02-22T15:45:40.659Z,2.70
2018-02-22T15:48:08.977Z,2.60
2018-02-22T15:50:36.433Z,2.60
2018-02-22T15:53:03.909Z,2.50
2018-02-22T15:55:31.370Z,2.50
2018-02-22T15:57:58.826Z,2.40
2018-02-22T16:00:26.293Z,2.40
2018-02-22T16:02:53.752Z,2.30
2018-02-22T16:05:25.214Z,2.20
2018-02-22T16:07:52.698Z,2.10
2018-02-22T16:10:20.192Z,2.00
2018-02-22T16:12:47.672Z,2.00
2018-02-22T16:15:15.160Z,2.00
2018-02-22T16:17:42.654Z,1.90
2018-02-22T16:20:10.914Z,1.80
2018-02-22T16:22:38.415Z,1.80
2018-02-22T16:25:05.917Z,1.80
2018-02-22T16:27:33.455Z,1.80
2018-02-22T16:30:00.944Z,1.70
2018-02-22T16:32:28.419Z,1.70
2018-02-22T16:34:56.675Z,1.50
2018-02-22T16:37:24.913Z,1.50
2018-02-22T16:39:52.404Z,1.50
2018-02-22T16:42:19.880Z,1.50
2018-02-22T16:44:48.147Z,1.40
2018-02-22T16:47:15.623Z,1.40
2018-02-22T16:49:43.893Z,1.40
2018-02-22T16:55:02.731Z,1.30
2018-02-22T16:57:30.206Z,1.30
2018-02-22T16:59:57.679Z,1.30
2018-02-22T17:02:25.141Z,1.30
2018-02-22T17:04:52.602Z,1.30
2018-02-22T17:07:20.842Z,1.20
2018-02-22T17:09:48.307Z,1.20
2018-02-22T17:12:15.785Z,1.10
2018-02-22T17:14:44.014Z,0.90
2018-02-22T17:17:11.476Z,0.90
2018-02-22T17:19:38.933Z,0.90
2018-02-22T17:22:06.395Z,0.90
2018-02-22T17:24:33.850Z,0.80
2018-02-22T17:27:06.954Z,0.80
2018-02-22T17:29:44.650Z,0.70
2018-02-22T17:32:17.837Z,0.70
2018-02-22T17:34:52.606Z,0.70
2018-02-22T17:37:20.829Z,0.60
2018-02-22T17:40:06.100Z,0.60
2018-02-22T17:42:36.948Z,0.50
2018-02-22T17:45:04.394Z,0.50
2018-02-22T17:47:31.853Z,0.40
2018-02-22T17:49:59.316Z,0.40
2018-02-22T17:52:26.772Z,0.40
2018-02-22T17:54:54.227Z,0.30
2018-02-22T17:57:28.088Z,0.30
2018-02-22T18:00:09.536Z,0.30
2018-02-22T18:02:37.799Z,0.40
2018-02-22T18:05:05.259Z,0.40
2018-02-22T18:07:32.710Z,0.50
2018-02-22T18:10:00.168Z,0.50
2018-02-22T18:12:27.627Z,0.60
2018-02-22T18:14:55.076Z,0.60
2018-02-22T18:17:22.549Z,0.70
2018-02-22T18:19:49.984Z,0.70
2018-02-22T18:22:17.452Z,0.70
2018-02-22T18:24:44.900Z,0.70
2018-02-22T18:27:12.358Z,0.70
2018-02-22T18:29:39.810Z,0.80
2018-02-22T18:32:07.284Z,0.80
2018-02-22T18:34:34.729Z,0.80
2018-02-22T18:37:02.177Z,0.80
2018-02-22T18:39:29.625Z,0.80
2018-02-22T18:42:03.607Z,0.80
2018-02-22T18:44:36.860Z,0.80
2018-02-22T18:47:05.090Z,0.90
2018-02-22T18:49:32.554Z,0.90
2018-02-22T18:52:00.012Z,0.90
2018-02-22T18:54:28.251Z,0.80
2018-02-22T18:56:55.716Z,0.80
2018-02-22T18:59:23.168Z,0.90
2018-02-22T19:01:50.617Z,0.90
2018-02-22T19:04:18.086Z,0.90
2018-02-22T19:06:45.536Z,1.00
2018-02-22T19:09:12.997Z,1.00
2018-02-22T19:11:40.458Z,1.00
2018-02-22T19:14:07.923Z,1.00
2018-02-22T19:16:35.364Z,1.00
2018-02-22T19:19:02.850Z,1.00
2018-02-22T19:21:30.312Z,1.00
2018-02-22T19:23:57.784Z,1.00
2018-02-22T19:26:26.005Z,1.00
2018-02-22T19:28:53.474Z,1.00
2018-02-22T19:31:20.931Z,1.00
2018-02-22T19:33:48.399Z,1.00
2018-02-22T19:36:15.859Z,1.00
2018-02-22T19:38:44.297Z,1.00
2018-02-22T19:41:11.976Z,1.00
2018-02-22T19:43:39.514Z,1.00
2018-02-22T19:46:06.971Z,1.00
2018-02-22T19:48:34.442Z,1.00
2018-02-22T19:51:02.658Z,1.00
2018-02-22T19:53:30.118Z,1.00
2018-02-22T19:55:57.568Z,1.10
2018-02-22T19:58:25.030Z,1.10
2018-02-22T20:00:53.742Z,1.10
2018-02-22T20:03:21.194Z,1.00
2018-02-22T20:05:48.642Z,1.00
2018-02-22T20:08:16.117Z,1.00
2018-02-22T20:10:44.340Z,1.00
2018-02-22T20:13:11.800Z,1.00
2018-02-22T20:15:39.270Z,1.00
2018-02-22T20:18:06.716Z,1.00
2018-02-22T20:20:34.189Z,1.00
2018-02-22T20:23:01.645Z,1.00
2018-02-22T20:25:29.121Z,1.00
2018-02-22T20:27:56.575Z,1.00
2018-02-22T20:30:24.033Z,1.00
2018-02-22T20:32:51.484Z,1.00
2018-02-22T20:35:18.945Z,1.00
2018-02-22T20:37:46.437Z,1.10
2018-02-22T20:40:13.844Z,1.10
2018-02-22T20:42:41.307Z,1.10
2018-02-22T20:45:08.763Z,1.10
2018-02-22T20:47:36.220Z,1.00
2018-02-22T20:50:03.685Z,1.00
2018-02-22T20:52:33.552Z,1.00
2018-02-22T20:55:10.901Z,1.10
2018-02-22T20:57:38.495Z,1.10
2018-02-22T21:00:05.978Z,1.10
2018-02-22T21:02:33.576Z,1.20
2018-02-22T21:05:01.080Z,1.20
2018-02-22T21:07:29.325Z,1.20
2018-02-22T21:09:56.868Z,1.20
2018-02-22T21:12:24.413Z,1.20
2018-02-22T21:14:51.923Z,1.20
2018-02-22T21:17:20.143Z,1.10
2018-02-22T21:19:47.600Z,1.10
2018-02-22T21:22:15.047Z,1.20
2018-02-22T21:24:42.515Z,1.20
2018-02-22T21:27:10.736Z,1.20
2018-02-22T21:29:39.498Z,1.20
2018-02-22T21:32:07.445Z,1.10
2018-02-22T21:34:55.072Z,1.20
2018-02-22T21:37:23.042Z,1.10
2018-02-22T21:39:51.012Z,1.20
2018-02-22T21:42:19.191Z,1.20
2018-02-22T21:44:46.934Z,1.10
2018-02-22T21:47:14.926Z,1.10
2018-02-22T21:49:42.892Z,1.20
2018-02-22T21:52:10.864Z,1.20
2018-02-22T21:54:38.831Z,1.20
2018-02-22T21:57:06.543Z,1.20
2018-02-22T21:59:34.462Z,1.20
2018-02-22T22:02:02.434Z,1.20
2018-02-22T22:04:30.718Z,1.20
2018-02-22T22:06:58.887Z,1.20
2018-02-22T22:09:27.266Z,1.10
2018-02-22T22:11:54.725Z,1.10
2018-02-22T22:14:22.180Z,1.00
2018-02-22T22:16:49.633Z,1.00
2018-02-22T22:19:17.095Z,0.90
2018-02-22T22:21:44.552Z,0.90
2018-02-22T22:24:12.006Z,0.90
2018-02-22T22:26:39.469Z,0.80
2018-02-22T22:29:06.924Z,0.80
2018-02-22T22:31:34.385Z,0.70
2018-02-22T22:34:01.870Z,0.70
2018-02-22T22:36:29.322Z,0.70
2018-02-22T22:38:56.794Z,0.70
2018-02-22T22:41:24.240Z,0.80
2018-02-22T22:43:51.708Z,0.70
2018-02-22T22:46:19.152Z,0.70
2018-02-22T22:48:46.617Z,0.70
2018-02-22T22:51:14.062Z,0.80
2018-02-22T22:53:41.530Z,0.80
2018-02-22T22:56:08.990Z,0.80
2018-02-22T22:58:36.456Z,0.80
2018-02-22T23:01:03.918Z,0.80
2018-02-22T23:03:31.385Z,0.80
2018-02-22T23:05:59.620Z,0.80
2018-02-22T23:08:27.130Z,0.80
2018-02-22T23:10:54.547Z,0.80
2018-02-22T23:13:22.046Z,0.80
2018-02-22T23:15:50.272Z,0.80
2018-02-22T23:18:17.736Z,0.80
2018-02-22T23:20:45.186Z,0.80
2018-02-22T23:23:12.645Z,0.80
2018-02-22T23:25:40.092Z,0.80
2018-02-22T23:28:07.545Z,0.80
2018-02-22T23:30:35.017Z,0.80
2018-02-22T23:33:02.468Z,0.80
2018-02-22T23:35:30.433Z,0.80
2018-02-22T23:37:58.405Z,0.90
2018-02-22T23:40:32.317Z,0.90
2018-02-22T23:42:59.821Z,0.90
2018-02-22T23:45:28.064Z,0.80
2018-02-22T23:47:55.515Z,0.80
2018-02-22T23:50:22.986Z,0.80
2018-02-22T23:52:50.440Z,0.80
2018-02-22T23:55:17.909Z,0.80
2018-02-22T23:57:45.365Z,0.80
